Time;durP1;ratioP1;P1;durP2;ratioP2;P2;SDS_P1;SDS_P2;PMS_P1;PMS_P2;Temp;Humidity;BMP_temperature;BMP_pressure;BME280_temperature;BME280_humidity;BME280_pressure;Samples;Min_cycle;Max_cycle;Signal;HPM_P1;HPM_P2
2022/06/04 03:01:08;;;;;;;1.30;1.20;;;25.80;46.10;;;;;;5599487;23;45887;-60
2022/06/04 03:03:34;;;;;;;1.88;1.58;;;25.80;46.10;;;;;;4878283;28;46117;-61
2022/06/04 03:06:01;;;;;;;1.50;1.40;;;25.80;46.10;;;;;;4899506;28;45272;-58
2022/06/04 03:08:28;;;;;;;1.85;1.30;;;25.80;46.10;;;;;;4907025;28;45216;-59
2022/06/04 03:10:54;;;;;;;1.40;1.30;;;25.80;46.10;;;;;;4873228;28;45068;-60
2022/06/04 03:13:20;;;;;;;1.70;1.60;;;25.80;46.10;;;;;;4891725;28;46145;-61
2022/06/04 03:15:46;;;;;;;1.52;1.42;;;25.80;46.10;;;;;;4908976;28;45565;-59
2022/06/04 03:18:13;;;;;;;2.05;1.58;;;25.80;46.10;;;;;;4909763;28;45759;-63
2022/06/04 03:20:39;;;;;;;1.73;1.63;;;25.80;46.10;;;;;;4908466;28;45389;-61
2022/06/04 03:23:06;;;;;;;1.67;1.52;;;25.80;46.20;;;;;;4907561;28;45918;-60
2022/06/04 03:25:32;;;;;;;1.77;1.67;;;25.80;46.10;;;;;;4906822;28;44723;-59
2022/06/04 03:27:58;;;;;;;1.45;1.35;;;25.80;46.10;;;;;;4909723;28;45241;-60
2022/06/04 03:30:26;;;;;;;1.70;1.60;;;25.80;46.10;;;;;;4902940;28;45231;-59
2022/06/04 03:32:51;;;;;;;1.60;1.50;;;25.80;46.20;;;;;;4887083;28;45605;-60
2022/06/04 03:35:17;;;;;;;1.55;1.45;;;25.70;46.10;;;;;;4908766;28;45621;-59
2022/06/04 03:37:43;;;;;;;2.38;1.50;;;25.80;46.20;;;;;;4906918;28;45526;-57
2022/06/04 03:40:08;;;;;;;1.88;1.50;;;25.70;46.10;;;;;;4908952;28;45525;-59
2022/06/04 03:42:34;;;;;;;3.42;1.67;;;25.80;46.20;;;;;;4907181;28;45967;-59
2022/06/04 03:45:00;;;;;;;2.42;1.88;;;25.80;46.20;;;;;;4908883;28;44712;-60
2022/06/04 03:47:25;;;;;;;1.50;1.40;;;25.70;46.10;;;;;;4906602;28;45607;-59
2022/06/04 03:49:51;;;;;;;1.58;1.48;;;25.80;46.20;;;;;;4909291;28;45194;-62
2022/06/04 03:52:17;;;;;;;1.63;1.52;;;25.80;46.20;;;;;;4909053;28;46138;-59
2022/06/04 03:54:52;;;;;;;1.50;1.40;;;25.80;46.20;;;;;;4905525;28;45506;-59
2022/06/04 04:00:27;;;;;;;1.60;1.50;;;25.80;46.20;;;;;;4895448;28;45093;-61
2022/06/04 04:03:04;;;;;;;1.50;1.40;;;25.80;46.20;;;;;;4901542;28;47015;-61
2022/06/04 04:05:33;;;;;;;1.90;1.80;;;25.80;46.30;;;;;;4902364;28;45061;-61
2022/06/04 04:07:59;;;;;;;1.95;1.75;;;25.80;46.20;;;;;;4906224;28;45468;-62
2022/06/04 04:10:25;;;;;;;1.73;1.58;;;25.80;46.20;;;;;;4910080;28;45691;-61
2022/06/04 04:12:51;;;;;;;3.03;1.90;;;25.80;46.20;;;;;;4889290;28;45349;-61
2022/06/04 04:15:16;;;;;;;1.70;1.60;;;25.80;46.20;;;;;;4908321;28;44922;-59
2022/06/04 04:17:42;;;;;;;1.48;1.38;;;25.80;46.30;;;;;;4909191;28;44761;-60
2022/06/04 04:20:16;;;;;;;2.08;1.65;;;25.70;46.20;;;;;;4903152;28;45705;-61
2022/06/04 04:22:42;;;;;;;2.38;1.80;;;25.70;46.30;;;;;;4892184;28;46233;-60
2022/06/04 04:25:08;;;;;;;1.50;1.40;;;25.70;46.30;;;;;;4911565;28;45771;-60
2022/06/04 04:27:34;;;;;;;1.73;1.63;;;25.70;46.30;;;;;;4911843;28;45479;-59
2022/06/04 04:30:00;;;;;;;1.50;1.40;;;25.70;46.20;;;;;;4895478;28;45595;-59
2022/06/04 04:32:26;;;;;;;1.90;1.80;;;25.70;46.30;;;;;;4909466;28;46045;-60
2022/06/04 04:34:52;;;;;;;2.47;1.75;;;25.70;46.40;;;;;;4910189;28;45232;-62
2022/06/04 04:37:17;;;;;;;1.75;1.65;;;25.70;46.30;;;;;;4911838;28;45529;-61
2022/06/04 04:39:43;;;;;;;2.58;2.20;;;25.70;46.30;;;;;;4894011;28;44824;-61
2022/06/04 04:42:09;;;;;;;2.17;2.00;;;25.70;46.30;;;;;;4911662;28;46340;-60
2022/06/04 04:44:34;;;;;;;2.65;2.05;;;25.70;46.30;;;;;;4912030;28;45715;-59
2022/06/04 04:47:00;;;;;;;2.22;2.00;;;25.70;46.30;;;;;;4895982;28;46668;-61
2022/06/04 04:49:26;;;;;;;1.83;1.73;;;25.70;46.40;;;;;;4912457;28;45539;-60
2022/06/04 04:51:51;;;;;;;2.03;1.83;;;25.80;46.40;;;;;;4893339;28;47042;-61
2022/06/04 04:54:17;;;;;;;1.80;1.70;;;25.70;46.30;;;;;;4906986;28;45110;-60
2022/06/04 04:56:43;;;;;;;2.20;1.90;;;25.70;46.30;;;;;;4892354;28;45150;-61
2022/06/04 04:59:09;;;;;;;1.73;1.63;;;25.70;46.30;;;;;;4907024;28;45722;-60
2022/06/04 05:01:35;;;;;;;2.60;2.40;;;25.70;46.40;;;;;;4903144;28;45568;-59
2022/06/04 05:04:00;;;;;;;2.50;2.30;;;25.70;46.40;;;;;;4909698;28;45212;-60
2022/06/04 05:06:26;;;;;;;2.08;1.88;;;25.70;46.40;;;;;;4909562;28;45226;-61
2022/06/04 05:08:54;;;;;;;1.90;1.80;;;25.70;46.40;;;;;;4912054;28;45219;-60
2022/06/04 05:11:22;;;;;;;2.25;2.05;;;25.70;46.50;;;;;;4911286;28;46284;-61
2022/06/04 05:13:49;;;;;;;2.00;1.67;;;25.70;46.50;;;;;;4909305;28;45445;-60
2022/06/04 05:16:19;;;;;;;2.08;1.88;;;25.70;46.40;;;;;;4902172;28;45348;-61
2022/06/04 05:18:46;;;;;;;1.85;1.75;;;25.70;46.50;;;;;;4915300;28;45554;-60
2022/06/04 05:21:16;;;;;;;1.98;1.77;;;25.70;46.40;;;;;;4896181;28;45400;-58
2022/06/04 05:23:42;;;;;;;2.28;2.00;;;25.80;46.50;;;;;;4908013;28;45371;-61
2022/06/04 05:26:07;;;;;;;1.83;1.73;;;25.70;46.30;;;;;;4912280;28;45693;-60
2022/06/04 05:28:33;;;;;;;2.10;1.90;;;25.70;46.40;;;;;;4931687;28;46170;-59
2022/06/04 05:30:58;;;;;;;1.92;1.73;;;25.70;46.40;;;;;;4929129;28;46042;-60
2022/06/04 05:33:24;;;;;;;2.00;1.85;;;25.70;46.30;;;;;;4930945;28;44685;-59
2022/06/04 05:35:50;;;;;;;2.13;1.92;;;25.70;46.30;;;;;;4931424;28;44722;-61
2022/06/04 05:38:15;;;;;;;2.05;1.90;;;25.70;46.40;;;;;;4897758;28;45522;-60
2022/06/04 05:40:41;;;;;;;3.78;2.28;;;25.70;46.50;;;;;;4931997;28;45536;-59
2022/06/04 05:43:06;;;;;;;2.55;2.00;;;25.70;46.50;;;;;;4930998;28;44691;-61
2022/06/04 05:45:32;;;;;;;2.33;2.00;;;25.70;46.50;;;;;;4931415;28;45311;-61
2022/06/04 05:47:57;;;;;;;2.20;2.00;;;25.70;46.50;;;;;;4926808;28;45644;-61
2022/06/04 05:50:23;;;;;;;2.50;1.73;;;25.70;46.50;;;;;;4930163;28;45940;-59
2022/06/04 05:52:49;;;;;;;1.80;1.65;;;25.70;46.50;;;;;;4924725;28;45332;-61
2022/06/04 05:55:14;;;;;;;2.05;1.85;;;25.70;46.50;;;;;;4928393;28;45506;-60
2022/06/04 05:57:40;;;;;;;2.00;1.83;;;25.70;46.50;;;;;;4912076;28;45157;-61
2022/06/04 06:00:08;;;;;;;2.53;2.15;;;25.70;46.50;;;;;;4928805;28;46309;-61
2022/06/04 06:02:36;;;;;;;1.70;1.60;;;25.70;46.50;;;;;;4927858;28;45696;-60
2022/06/04 06:05:03;;;;;;;2.30;2.10;;;25.70;46.50;;;;;;4929634;28;45495;-59
2022/06/04 06:07:28;;;;;;;2.00;1.90;;;25.70;46.50;;;;;;4913646;28;46316;-60
2022/06/04 06:09:54;;;;;;;3.80;2.03;;;25.70;46.50;;;;;;4937647;28;46158;-61
2022/06/04 06:12:20;;;;;;;2.08;1.58;;;25.70;46.50;;;;;;4943058;28;45211;-61
2022/06/04 06:14:45;;;;;;;1.95;1.77;;;25.70;46.60;;;;;;4930732;28;45422;-60
2022/06/04 06:17:11;;;;;;;2.20;2.00;;;25.70;46.50;;;;;;4914422;28;45391;-61
2022/06/04 06:19:36;;;;;;;2.03;1.80;;;25.70;46.50;;;;;;4919276;28;45436;-60
2022/06/04 06:22:02;;;;;;;2.42;1.88;;;25.70;46.60;;;;;;4922641;28;44818;-62
2022/06/04 06:24:28;;;;;;;3.22;1.98;;;25.70;46.50;;;;;;4924229;28;46215;-60
2022/06/04 06:26:55;;;;;;;1.92;1.83;;;25.70;46.50;;;;;;4920898;28;45814;-61
2022/06/04 06:29:23;;;;;;;1.60;1.50;;;25.70;46.60;;;;;;4916027;28;47095;-57
2022/06/04 06:31:48;;;;;;;2.38;1.88;;;25.70;46.60;;;;;;4903926;28;45644;-61
2022/06/04 06:34:14;;;;;;;2.42;1.85;;;25.70;46.60;;;;;;4915845;28;45437;-61
2022/06/04 06:36:40;;;;;;;2.03;1.83;;;25.70;46.50;;;;;;4917153;28;45597;-60
2022/06/04 06:39:06;;;;;;;2.25;2.05;;;25.70;46.50;;;;;;4906483;28;47353;-61
2022/06/04 06:41:31;;;;;;;2.85;2.00;;;25.70;46.50;;;;;;4923444;28;45533;-62
2022/06/04 06:43:57;;;;;;;1.80;1.70;;;25.70;46.50;;;;;;4920596;28;45435;-61
2022/06/04 06:46:46;;;;;;;2.10;1.77;;;25.70;46.50;;;;;;4915101;28;45896;-60
2022/06/04 06:49:12;;;;;;;2.13;1.90;;;25.70;46.50;;;;;;4926452;28;46208;-62
2022/06/04 06:51:40;;;;;;;1.90;1.80;;;25.70;46.50;;;;;;4929691;28;45807;-61
2022/06/04 06:54:06;;;;;;;2.20;2.00;;;25.70;46.70;;;;;;4913340;28;46487;-60
2022/06/04 06:56:34;;;;;;;1.70;1.60;;;25.70;46.60;;;;;;4920755;28;45684;-59
2022/06/04 06:59:00;;;;;;;2.33;2.03;;;25.70;46.70;;;;;;4916833;28;46198;-60
2022/06/04 07:01:26;;;;;;;2.08;1.88;;;25.70;46.70;;;;;;4922621;28;44919;-63
2022/06/04 07:03:52;;;;;;;1.92;1.80;;;25.70;46.60;;;;;;4917403;28;45842;-58
2022/06/04 07:06:28;;;;;;;1.80;1.65;;;25.70;46.60;;;;;;4916780;28;46569;-60
2022/06/04 07:08:53;;;;;;;1.70;1.60;;;25.70;46.60;;;;;;4921197;28;45536;-61
2022/06/04 07:11:19;;;;;;;2.00;1.90;;;25.70;46.50;;;;;;4920101;28;45619;-61
2022/06/04 07:13:44;;;;;;;2.03;1.80;;;25.70;46.60;;;;;;4925396;28;45976;-60
2022/06/04 07:16:10;;;;;;;1.80;1.70;;;25.70;46.50;;;;;;4931010;28;45922;-61
2022/06/04 07:18:35;;;;;;;1.80;1.70;;;25.70;46.50;;;;;;4912093;28;46036;-62
2022/06/04 07:21:04;;;;;;;1.65;1.55;;;25.70;46.50;;;;;;4931249;28;45437;-61
2022/06/04 07:23:33;;;;;;;1.80;1.70;;;25.70;46.50;;;;;;4919439;28;45961;-62
2022/06/04 07:26:00;;;;;;;1.88;1.77;;;25.70;46.50;;;;;;4922661;28;45481;-63
2022/06/04 07:28:25;;;;;;;1.95;1.80;;;25.80;46.60;;;;;;4920105;28;46196;-60
2022/06/04 07:30:51;;;;;;;2.10;1.90;;;25.70;46.60;;;;;;4915176;28;45593;-61
2022/06/04 07:33:16;;;;;;;2.35;2.15;;;25.70;46.50;;;;;;4929159;28;45502;-60
2022/06/04 07:35:49;;;;;;;2.33;1.90;;;25.80;46.50;;;;;;4913726;28;46016;-59
2022/06/04 07:38:14;;;;;;;1.90;1.77;;;25.80;46.50;;;;;;4917115;28;45622;-60
2022/06/04 07:40:40;;;;;;;2.38;2.17;;;25.80;46.60;;;;;;4915372;28;45256;-60
2022/06/04 07:43:06;;;;;;;2.00;1.80;;;25.80;46.50;;;;;;4911790;28;45428;-60
2022/06/04 07:45:32;;;;;;;1.70;1.60;;;25.80;46.60;;;;;;4922552;28;46460;-61
2022/06/04 07:47:58;;;;;;;1.67;1.58;;;25.70;46.60;;;;;;4908195;28;46019;-63
2022/06/04 07:50:23;;;;;;;1.98;1.80;;;25.80;46.60;;;;;;4901479;28;46197;-60
2022/06/04 07:52:49;;;;;;;1.70;1.60;;;25.80;46.60;;;;;;4911342;28;45458;-59
2022/06/04 07:55:15;;;;;;;2.25;2.05;;;25.80;46.50;;;;;;4931053;28;45539;-59
2022/06/04 07:57:41;;;;;;;1.77;1.67;;;25.80;46.50;;;;;;4928368;28;45905;-58
2022/06/04 08:00:07;;;;;;;2.10;1.92;;;25.80;46.40;;;;;;4927218;28;45852;-60
2022/06/04 08:02:33;;;;;;;6.70;2.00;;;25.80;46.40;;;;;;4900318;28;45144;-62
2022/06/04 08:04:58;;;;;;;3.47;2.72;;;25.90;46.40;;;;;;4906581;28;45627;-62
2022/06/04 08:07:24;;;;;;;3.70;3.40;;;25.80;46.80;;;;;;4932425;28;47303;-63
2022/06/04 08:09:50;;;;;;;5.38;3.70;;;25.80;47.40;;;;;;4930036;28;45354;-63
2022/06/04 08:12:16;;;;;;;8.50;4.15;;;25.80;47.90;;;;;;4927614;28;45713;-62
2022/06/04 08:14:42;;;;;;;5.47;4.57;;;25.70;48.30;;;;;;4917352;28;45349;-63
2022/06/04 08:17:08;;;;;;;8.02;5.03;;;25.70;48.80;;;;;;4919577;28;45705;-61
2022/06/04 08:19:34;;;;;;;5.55;4.90;;;25.70;49.20;;;;;;4924364;28;45643;-61
2022/06/04 08:22:00;;;;;;;8.27;5.35;;;25.60;49.60;;;;;;4906223;28;45609;-63
2022/06/04 08:24:25;;;;;;;6.65;5.38;;;25.60;49.70;;;;;;4893495;28;44967;-64
2022/06/04 08:26:58;;;;;;;14.23;5.90;;;25.60;49.80;;;;;;4920469;28;45790;-63
2022/06/04 08:29:24;;;;;;;7.35;4.70;;;25.60;50.00;;;;;;4931168;28;45635;-62
2022/06/04 08:31:50;;;;;;;11.00;5.32;;;25.60;50.20;;;;;;4909640;28;45697;-61
2022/06/04 08:34:16;;;;;;;10.55;5.38;;;25.60;50.20;;;;;;4925237;28;44868;-61
2022/06/04 08:36:41;;;;;;;6.78;5.22;;;25.60;50.40;;;;;;4921398;28;45604;-62
2022/06/04 08:39:07;;;;;;;8.65;5.22;;;25.60;50.50;;;;;;4915800;28;46149;-61
2022/06/04 08:41:55;;;;;;;6.88;5.82;;;25.60;50.70;;;;;;4911706;28;45230;-61
2022/06/04 08:44:35;;;;;;;7.22;5.68;;;25.60;51.80;;;;;;4914514;28;45618;-62
2022/06/04 08:47:16;;;;;;;6.07;5.45;;;25.60;51.70;;;;;;4916509;28;46371;-60
2022/06/04 08:49:44;;;;;;;8.50;5.07;;;25.60;52.00;;;;;;4921452;28;45687;-61
2022/06/04 08:52:12;;;;;;;7.55;5.38;;;25.60;51.20;;;;;;4919777;28;45356;-59
2022/06/04 08:57:32;;;;;;;8.25;6.10;;;25.60;51.60;;;;;;4927587;28;45442;-61
2022/06/04 09:00:10;;;;;;;7.80;6.40;;;25.60;52.30;;;;;;4900967;28;45493;-61
2022/06/04 09:02:54;;;;;;;6.30;5.70;;;25.50;52.30;;;;;;4919434;28;45795;-62
2022/06/04 09:05:38;;;;;;;6.82;6.10;;;25.50;52.30;;;;;;4906850;28;46410;-62
2022/06/04 09:08:09;;;;;;;6.75;5.57;;;25.50;52.80;;;;;;4924598;28;45235;-62
2022/06/04 09:10:57;;;;;;;7.32;6.63;;;25.50;52.50;;;;;;4926532;28;45481;-61
2022/06/04 09:13:35;;;;;;;6.90;5.80;;;25.50;53.40;;;;;;4907780;28;45528;-61
2022/06/04 09:16:29;;;;;;;5.93;5.25;;;25.40;53.20;;;;;;4913242;28;45785;-62
2022/06/04 09:19:02;;;;;;;6.95;6.25;;;25.40;53.60;;;;;;4912654;28;46594;-61
2022/06/04 09:21:34;;;;;;;6.47;5.70;;;25.40;53.20;;;;;;4896401;28;46368;-61
2022/06/04 09:24:00;;;;;;;6.87;6.03;;;25.40;53.00;;;;;;4901842;28;44769;-63
2022/06/04 09:26:40;;;;;;;6.93;6.20;;;25.40;52.80;;;;;;4915666;28;46264;-60
2022/06/04 09:29:20;;;;;;;8.50;6.55;;;25.40;53.10;;;;;;4907005;28;46045;-61
2022/06/04 09:31:58;;;;;;;7.45;6.47;;;25.40;53.00;;;;;;4910772;28;45119;-61
2022/06/04 09:34:24;;;;;;;7.47;6.78;;;25.40;53.30;;;;;;4916042;28;45587;-62
2022/06/04 09:36:50;;;;;;;7.25;6.55;;;25.40;53.50;;;;;;4923295;28;45104;-62
2022/06/04 09:39:31;;;;;;;6.85;6.18;;;25.40;53.60;;;;;;4886878;28;47255;-63
2022/06/04 09:42:04;;;;;;;8.15;6.55;;;25.40;54.30;;;;;;4930023;28;45763;-61
2022/06/04 09:44:31;;;;;;;8.00;6.82;;;25.40;54.60;;;;;;4914538;28;45347;-59
2022/06/04 09:47:06;;;;;;;7.93;7.13;;;25.50;53.90;;;;;;4924947;28;46475;-62
2022/06/04 09:49:36;;;;;;;7.10;6.40;;;25.50;55.00;;;;;;4920914;28;45531;-60
2022/06/04 09:52:20;;;;;;;9.23;7.25;;;25.50;54.30;;;;;;4924452;28;45323;-62
2022/06/04 09:54:52;;;;;;;9.98;6.50;;;25.50;55.10;;;;;;4912939;28;45947;-60
2022/06/04 09:57:57;;;;;;;7.50;6.75;;;25.50;54.20;;;;;;4913683;28;45089;-62
2022/06/04 10:00:25;;;;;;;7.20;6.50;;;25.60;55.20;;;;;;4919783;28;46197;-62
2022/06/04 10:03:01;;;;;;;8.35;7.20;;;25.60;54.20;;;;;;4914497;28;45493;-60
2022/06/04 10:05:28;;;;;;;6.80;6.10;;;25.60;54.70;;;;;;4936449;28;45101;-60
2022/06/04 10:07:54;;;;;;;8.57;6.95;;;25.60;54.20;;;;;;4920580;28;45325;-60
2022/06/04 10:10:21;;;;;;;8.30;7.40;;;25.60;54.30;;;;;;4938860;28;46040;-61
2022/06/04 10:15:48;;;;;;;8.38;7.30;;;25.60;54.30;;;;;;4919666;28;44947;-61
2022/06/04 10:18:18;;;;;;;8.35;7.53;;;25.60;54.80;;;;;;4923433;28;44677;-61
2022/06/04 10:20:54;;;;;;;8.60;7.70;;;25.60;54.70;;;;;;4935299;28;45301;-61
2022/06/04 10:23:20;;;;;;;8.50;7.60;;;25.50;55.10;;;;;;4918236;28;45550;-61
2022/06/04 10:26:04;;;;;;;8.38;7.43;;;25.60;54.60;;;;;;4936880;28;45243;-61
2022/06/04 10:29:05;;;;;;;10.02;7.32;;;25.60;55.00;;;;;;4919600;28;45458;-62
2022/06/04 10:31:39;;;;;;;9.60;7.95;;;25.60;55.30;;;;;;4918211;28;45253;-61
2022/06/04 10:34:27;;;;;;;14.23;7.65;;;25.60;54.70;;;;;;4931955;28;45314;-61
2022/06/04 10:37:16;;;;;;;7.90;7.10;;;25.70;55.10;;;;;;4936225;28;45408;-62
2022/06/04 10:40:29;;;;;;;7.53;6.82;;;25.60;54.90;;;;;;4922696;28;45293;-61
2022/06/04 10:43:33;;;;;;;8.90;6.18;;;25.60;55.40;;;;;;4932692;28;45170;-61
2022/06/04 10:45:59;;;;;;;;;;;25.60;55.40;;;;;;4924748;28;45174;-60
2022/06/04 10:48:32;;;;;;;8.27;7.47;;;25.60;55.70;;;;;;4941769;28;45160;-62
2022/06/04 10:54:09;;;;;;;9.73;7.25;;;25.60;55.80;;;;;;4920875;28;45332;-60
2022/06/04 10:56:50;;;;;;;9.18;7.88;;;25.60;55.40;;;;;;4934751;28;45529;-61
2022/06/04 10:59:22;;;;;;;11.75;7.47;;;25.60;54.70;;;;;;4927707;28;45405;-62
2022/06/04 11:01:58;;;;;;;11.15;8.25;;;25.60;54.80;;;;;;4920749;28;45415;-61
2022/06/04 11:04:43;;;;;;;10.07;7.95;;;25.60;55.00;;;;;;4904093;28;45114;-61
2022/06/04 11:07:18;;;;;;;9.00;7.47;;;25.60;55.00;;;;;;4917863;28;45329;-61
2022/06/04 11:09:43;;;;;;;10.70;8.30;;;25.60;55.10;;;;;;4920939;28;45020;-61
2022/06/04 11:12:21;;;;;;;9.68;8.05;;;25.60;54.80;;;;;;4904550;28;45323;-61
2022/06/04 11:14:51;;;;;;;8.82;7.93;;;25.60;55.20;;;;;;4918276;28;46109;-61
2022/06/04 11:17:40;;;;;;;10.68;8.32;;;25.50;55.00;;;;;;4919242;28;44925;-61
2022/06/04 11:20:11;;;;;;;8.35;7.55;;;25.60;55.30;;;;;;4921418;28;44783;-59
2022/06/04 11:22:38;;;;;;;9.80;8.10;;;25.50;55.10;;;;;;4921103;28;45550;-61
2022/06/04 11:25:27;;;;;;;8.27;7.47;;;25.50;55.10;;;;;;4921778;28;45981;-61
2022/06/04 11:28:00;;;;;;;8.35;7.38;;;25.50;55.30;;;;;;4920298;28;45343;-60
2022/06/04 11:30:44;;;;;;;9.23;8.32;;;25.50;55.20;;;;;;4934551;28;45357;-61
2022/06/04 11:33:31;;;;;;;8.90;8.00;;;25.50;55.60;;;;;;4936421;28;45719;-62
2022/06/04 11:36:18;;;;;;;11.05;9.20;;;25.60;55.80;;;;;;4935612;28;45216;-61
2022/06/04 11:39:00;;;;;;;9.60;8.60;;;25.60;55.40;;;;;;4935381;28;44953;-61
2022/06/04 11:41:41;;;;;;;10.60;8.15;;;25.60;55.10;;;;;;4919586;28;45221;-61
2022/06/04 11:44:32;;;;;;;9.98;8.93;;;25.60;55.20;;;;;;4938139;28;45379;-61
2022/06/04 11:47:16;;;;;;;8.45;7.55;;;25.60;55.50;;;;;;4924779;28;46243;-61
2022/06/04 11:50:06;;;;;;;8.98;8.07;;;25.60;55.30;;;;;;4933056;28;45271;-61
2022/06/04 11:52:38;;;;;;;12.10;8.35;;;25.60;55.30;;;;;;4919010;28;45301;-60
2022/06/04 11:55:09;;;;;;;9.40;8.43;;;25.50;55.30;;;;;;4920279;28;44717;-60
2022/06/04 11:57:40;;;;;;;9.80;8.63;;;25.50;55.30;;;;;;4917968;28;45964;-57
2022/06/04 12:00:41;;;;;;;9.55;8.57;;;25.50;55.70;;;;;;4896890;28;44911;-61
2022/06/04 12:03:29;;;;;;;8.75;7.85;;;25.50;56.10;;;;;;4904546;28;45546;-60
2022/06/04 12:05:59;;;;;;;9.45;7.82;;;25.50;56.10;;;;;;4888110;28;45253;-61
2022/06/04 12:08:27;;;;;;;8.88;8.05;;;25.60;55.40;;;;;;4916837;28;45264;-59
2022/06/04 12:11:15;;;;;;;12.85;8.65;;;25.60;55.40;;;;;;4920747;28;44607;-61
2022/06/04 12:14:12;;;;;;;9.70;8.70;;;25.50;55.50;;;;;;4936579;28;45481;-61
2022/06/04 12:16:47;;;;;;;10.43;7.80;;;25.50;55.70;;;;;;4922623;28;45132;-60
2022/06/04 12:25:13;;;;;;;;;;;25.50;55.60;;;;;;4919252;28;44999;-60
2022/06/04 12:27:54;;;;;;;7.28;6.57;;;25.50;56.50;;;;;;4916612;28;44965;-59
2022/06/04 12:30:34;;;;;;;7.70;6.68;;;25.50;56.30;;;;;;4939045;28;45911;-61
2022/06/04 12:33:00;;;;;;;8.27;7.47;;;25.50;56.10;;;;;;4904783;28;45266;-59
2022/06/04 12:35:26;;;;;;;8.73;7.82;;;25.50;55.60;;;;;;4895274;28;45239;-62
2022/06/04 12:37:58;;;;;;;9.52;8.38;;;25.50;55.80;;;;;;4901735;28;45465;-61
2022/06/04 12:40:24;;;;;;;8.80;7.90;;;25.50;56.20;;;;;;4917679;28;46441;-60
2022/06/04 12:43:21;;;;;;;8.93;8.02;;;25.50;56.00;;;;;;4939958;28;45204;-61
2022/06/04 12:45:52;;;;;;;9.02;7.43;;;25.50;56.80;;;;;;4921547;28;45009;-59
2022/06/04 12:48:46;;;;;;;8.00;7.30;;;25.50;56.00;;;;;;4924160;28;45467;-59
2022/06/04 12:51:27;;;;;;;8.70;7.60;;;25.50;56.60;;;;;;4917694;28;46010;-61
2022/06/04 12:53:59;;;;;;;8.48;7.63;;;25.50;56.40;;;;;;4899624;28;44843;-60
2022/06/04 12:56:33;;;;;;;9.38;8.13;;;25.50;56.50;;;;;;4906398;28;45557;-60
2022/06/04 12:59:01;;;;;;;9.05;8.15;;;25.50;56.40;;;;;;4913954;28;46395;-60
2022/06/04 13:01:29;;;;;;;7.82;7.05;;;25.50;56.20;;;;;;4909861;28;46029;-62
2022/06/04 13:04:10;;;;;;;8.32;7.53;;;25.50;56.50;;;;;;4934295;28;45349;-61
2022/06/04 13:06:39;;;;;;;9.23;7.32;;;25.50;57.20;;;;;;4933050;28;45504;-60
2022/06/04 13:09:45;;;;;;;10.45;8.05;;;25.50;56.50;;;;;;4911588;28;45468;-61
2022/06/04 13:12:26;;;;;;;8.52;7.35;;;25.50;57.10;;;;;;4930297;28;46136;-61
2022/06/04 13:14:54;;;;;;;7.82;7.10;;;25.60;56.90;;;;;;4915124;28;44730;-61
2022/06/04 13:17:33;;;;;;;8.00;7.20;;;25.60;56.40;;;;;;4932837;28;45618;-61
2022/06/04 13:20:20;;;;;;;8.50;7.50;;;25.50;57.00;;;;;;4896581;28;45844;-61
2022/06/04 13:22:55;;;;;;;7.03;6.43;;;25.50;56.60;;;;;;4929660;28;45540;-60
2022/06/04 13:25:26;;;;;;;7.40;6.70;;;25.60;56.70;;;;;;4914432;28;45316;-62
2022/06/04 13:27:53;;;;;;;9.35;6.65;;;25.50;56.60;;;;;;4913850;28;45275;-59
2022/06/04 13:30:36;;;;;;;8.65;7.20;;;25.50;56.70;;;;;;4931430;28;45404;-61
2022/06/04 13:33:07;;;;;;;8.03;6.93;;;25.50;57.40;;;;;;4916044;28;46149;-60
2022/06/04 13:35:33;;;;;;;9.38;7.40;;;25.50;57.10;;;;;;4933379;28;45421;-60
2022/06/04 13:37:58;;;;;;;7.65;6.85;;;25.50;56.70;;;;;;4914125;28;45540;-61
2022/06/04 13:40:28;;;;;;;8.15;7.20;;;25.60;56.60;;;;;;4913398;28;46032;-57
2022/06/04 13:42:55;;;;;;;7.53;6.82;;;25.60;56.70;;;;;;4892902;28;45254;-60
2022/06/04 13:45:36;;;;;;;8.35;7.15;;;25.60;56.70;;;;;;4896606;28;45178;-61
2022/06/04 13:48:23;;;;;;;8.05;7.25;;;25.60;57.10;;;;;;4933108;28;45271;-62
2022/06/04 13:50:52;;;;;;;7.63;6.85;;;25.60;57.20;;;;;;4928818;28;45553;-62
2022/06/04 13:53:20;;;;;;;7.07;6.38;;;25.60;56.50;;;;;;4914758;28;46876;-61
2022/06/04 13:55:58;;;;;;;8.32;7.20;;;25.70;56.60;;;;;;4931938;28;45234;-60
2022/06/04 13:58:28;;;;;;;7.68;6.95;;;25.70;56.80;;;;;;4901550;28;45307;-61
2022/06/04 14:00:58;;;;;;;10.32;7.70;;;25.70;56.80;;;;;;4909212;28;45695;-60
2022/06/04 14:03:29;;;;;;;7.78;6.97;;;25.70;56.60;;;;;;4898655;28;45703;-60
2022/06/04 14:05:55;;;;;;;8.45;7.18;;;25.70;56.80;;;;;;4915303;28;45584;-59
2022/06/04 14:08:30;;;;;;;7.55;6.82;;;25.70;56.60;;;;;;4882428;28;45577;-60
2022/06/04 14:11:20;;;;;;;7.75;6.95;;;25.70;57.00;;;;;;4932092;28;45157;-60
2022/06/04 14:13:55;;;;;;;7.43;6.65;;;25.70;56.70;;;;;;4914531;28;45124;-58
2022/06/04 14:17:02;;;;;;;7.13;6.43;;;25.70;56.60;;;;;;4915364;28;44881;-61
2022/06/04 14:19:45;;;;;;;8.45;6.57;;;25.70;57.30;;;;;;4933511;28;45380;-60
2022/06/04 14:22:13;;;;;;;7.43;6.47;;;25.80;57.20;;;;;;4916271;28;45611;-59
2022/06/04 14:25:18;;;;;;;7.70;6.93;;;25.70;56.70;;;;;;4934186;28;46137;-60
2022/06/04 14:28:24;;;;;;;7.32;6.63;;;25.70;57.30;;;;;;4929524;28;45027;-60
2022/06/04 14:31:15;;;;;;;7.70;6.95;;;25.70;57.10;;;;;;4930899;28;45250;-59
2022/06/04 14:33:42;;;;;;;7.10;6.45;;;25.80;57.50;;;;;;4917770;28;45305;-61
2022/06/04 14:36:18;;;;;;;7.10;6.40;;;25.80;56.80;;;;;;4898527;28;45336;-60
2022/06/04 14:38:46;;;;;;;8.07;6.80;;;25.80;57.00;;;;;;4915418;28;45390;-61
2022/06/04 14:41:21;;;;;;;6.65;5.63;;;25.80;57.00;;;;;;4916340;28;45348;-61
2022/06/04 14:44:19;;;;;;;6.90;6.28;;;25.80;57.40;;;;;;4931352;28;45611;-60
2022/06/04 14:47:04;;;;;;;6.85;6.13;;;25.80;57.50;;;;;;4919070;28;45698;-61
2022/06/04 14:49:37;;;;;;;7.30;6.22;;;25.80;56.60;;;;;;4902776;28;45318;-62
2022/06/04 14:52:17;;;;;;;6.55;5.93;;;25.80;56.90;;;;;;4914933;28;45470;-60
2022/06/04 14:54:44;;;;;;;7.25;6.53;;;25.80;56.70;;;;;;4918297;28;45316;-60
2022/06/04 14:57:25;;;;;;;7.07;6.38;;;25.90;56.70;;;;;;4915066;28;46183;-60
2022/06/04 14:59:54;;;;;;;6.80;6.05;;;25.90;57.00;;;;;;4932459;28;44746;-60
2022/06/04 15:02:49;;;;;;;7.00;6.35;;;25.90;56.60;;;;;;4930281;28;45070;-61
2022/06/04 15:05:58;;;;;;;7.07;6.38;;;26.00;56.90;;;;;;4918383;28;45614;-62
2022/06/04 15:08:36;;;;;;;7.93;6.55;;;26.00;56.60;;;;;;4900563;28;45181;-61
2022/06/04 15:11:23;;;;;;;6.30;5.72;;;26.00;56.40;;;;;;4930921;28;45052;-61
2022/06/04 15:13:49;;;;;;;6.60;6.00;;;26.10;56.30;;;;;;4917357;28;45203;-60
2022/06/04 15:16:34;;;;;;;6.35;5.75;;;26.00;56.20;;;;;;4913511;28;45305;-61
2022/06/04 15:19:15;;;;;;;6.38;5.78;;;26.00;56.60;;;;;;4930078;28;45351;-60
2022/06/04 15:21:46;;;;;;;6.53;5.93;;;26.00;56.50;;;;;;4911197;28;45190;-61
2022/06/04 15:24:25;;;;;;;6.88;6.18;;;26.00;56.20;;;;;;4913541;28;45140;-60
2022/06/04 15:27:15;;;;;;;6.15;5.55;;;26.10;56.40;;;;;;4912468;28;45388;-61
2022/06/04 15:36:13;;;;;;;5.47;4.95;;;26.10;55.90;;;;;;4916209;28;45519;-62
2022/06/04 15:38:59;;;;;;;6.80;6.05;;;26.10;55.90;;;;;;4913361;28;45693;-61
2022/06/04 15:41:35;;;;;;;6.55;5.75;;;26.20;55.80;;;;;;4904001;28;45917;-60
2022/06/04 15:44:09;;;;;;;6.88;5.93;;;26.20;55.70;;;;;;4920038;28;45438;-59
2022/06/04 15:46:37;;;;;;;6.47;5.57;;;26.20;55.70;;;;;;4904548;28;45174;-59
2022/06/04 15:49:12;;;;;;;6.20;5.60;;;26.20;55.60;;;;;;4937844;28;45377;-61
2022/06/04 15:57:32;;;;;;;5.85;5.35;;;26.30;55.30;;;;;;4922032;28;45563;-59
2022/06/04 16:00:00;;;;;;;6.00;5.50;;;26.30;55.50;;;;;;4934830;28;45271;-59
2022/06/04 16:02:31;;;;;;;6.68;5.25;;;26.30;55.20;;;;;;4899741;28;46943;-59
2022/06/04 16:05:06;;;;;;;5.90;5.25;;;26.30;55.30;;;;;;4919241;28;45275;-58
2022/06/04 16:07:42;;;;;;;5.82;5.32;;;26.30;55.20;;;;;;4919730;28;44984;-59
2022/06/04 16:10:12;;;;;;;5.28;4.78;;;26.40;55.20;;;;;;4935713;28;45458;-59
2022/06/04 16:12:58;;;;;;;6.60;5.05;;;26.40;55.10;;;;;;4940643;28;45526;-61
2022/06/04 16:15:45;;;;;;;6.38;5.28;;;26.40;55.10;;;;;;4944136;28;45130;-60
2022/06/04 16:18:24;;;;;;;5.72;5.13;;;26.40;55.10;;;;;;4929667;28;45238;-60
2022/06/04 16:20:59;;;;;;;6.32;5.72;;;26.40;55.00;;;;;;4923120;28;45209;-62
2022/06/04 16:23:36;;;;;;;6.03;5.43;;;26.40;54.90;;;;;;4923445;28;45349;-60
2022/06/04 16:26:19;;;;;;;5.97;5.43;;;26.40;54.80;;;;;;4939432;28;45476;-61
2022/06/04 16:28:53;;;;;;;5.70;5.20;;;26.40;54.80;;;;;;4940677;28;44865;-60
2022/06/04 16:31:21;;;;;;;5.80;5.30;;;26.50;54.90;;;;;;4905713;28;45767;-59
2022/06/04 16:34:04;;;;;;;4.95;4.47;;;26.50;54.70;;;;;;4922151;28;45702;-60
2022/06/04 16:36:42;;;;;;;;;;;26.50;54.60;;;;;;4922675;28;45232;-59
2022/06/04 16:39:09;;;;;;;5.00;4.32;;;26.50;54.80;;;;;;4943615;28;45342;-59
2022/06/04 16:41:53;;;;;;;5.25;4.85;;;26.50;54.50;;;;;;4903953;28;45640;-62
2022/06/04 16:44:51;;;;;;;5.53;5.03;;;26.50;54.40;;;;;;4899271;28;45314;-61
2022/06/04 16:47:19;;;;;;;6.43;5.15;;;26.60;54.50;;;;;;4925287;28;45313;-60